createdAt,value
2022-08-09T00:01:10.646Z,1.88
2022-08-09T00:04:06.003Z,2.00
2022-08-09T00:06:29.267Z,1.80
2022-08-09T00:08:58.599Z,2.22
2022-08-09T00:11:27.823Z,2.45
2022-08-09T00:14:11.672Z,2.08
2022-08-09T00:16:44.523Z,2.13
2022-08-09T00:19:14.003Z,2.03
2022-08-09T00:21:56.169Z,2.20
2022-08-09T00:24:24.385Z,1.85
2022-08-09T00:26:50.911Z,2.10
2022-08-09T00:29:39.215Z,2.42
2022-08-09T00:32:04.026Z,2.60
2022-08-09T00:34:32.664Z,2.80
2022-08-09T00:37:00.264Z,2.72
2022-08-09T00:40:14.087Z,3.10
2022-08-09T00:44:19.305Z,2.90
2022-08-09T00:44:59.674Z,2.73
2022-08-09T00:47:33.145Z,2.63
2022-08-09T00:50:02.854Z,2.75
2022-08-09T00:52:31.091Z,2.72
2022-08-09T00:55:00.410Z,2.65
2022-08-09T00:57:34.343Z,2.73
2022-08-09T01:00:20.413Z,2.35
2022-08-09T01:02:53.647Z,2.53
2022-08-09T01:05:53.084Z,2.25
2022-08-09T01:08:30.715Z,2.55
2022-08-09T01:11:17.702Z,2.77
2022-08-09T01:13:59.841Z,2.78
2022-08-09T01:16:35.131Z,2.65
2022-08-09T01:19:42.502Z,2.53
2022-08-09T01:22:30.809Z,2.80
2022-08-09T01:25:29.428Z,2.77
2022-08-09T01:27:59.604Z,2.17
2022-08-09T01:30:35.716Z,2.15
2022-08-09T01:33:18.148Z,1.92
2022-08-09T01:35:59.207Z,1.50
2022-08-09T01:38:29.858Z,2.50
2022-08-09T01:41:13.384Z,2.53
2022-08-09T01:43:51.161Z,2.55
2022-08-09T01:46:32.460Z,2.63
2022-08-09T01:49:10.367Z,3.05
2022-08-09T01:51:44.317Z,2.80
2022-08-09T01:54:13.726Z,3.08
2022-08-09T01:56:51.504Z,3.13
2022-08-09T01:59:21.307Z,3.30
2022-08-09T02:01:58.113Z,3.17
2022-08-09T02:04:28.390Z,3.20
2022-08-09T02:07:18.323Z,3.25
2022-08-09T02:10:11.000Z,3.40
2022-08-09T02:12:39.286Z,3.63
2022-08-09T02:15:08.143Z,4.05
2022-08-09T02:18:01.271Z,3.77
2022-08-09T02:20:32.857Z,2.83
2022-08-09T02:23:14.678Z,3.13
2022-08-09T02:25:52.560Z,3.95
2022-08-09T02:28:40.523Z,3.25
2022-08-09T02:31:18.511Z,3.37
2022-08-09T02:34:06.463Z,3.40
2022-08-09T02:36:44.543Z,3.45
2022-08-09T02:39:33.220Z,3.53
2022-08-09T02:42:11.607Z,3.10
2022-08-09T02:44:41.393Z,3.37
2022-08-09T02:47:12.100Z,3.45
2022-08-09T02:50:02.080Z,3.63
2022-08-09T02:52:40.285Z,3.67
2022-08-09T02:55:21.059Z,2.92
2022-08-09T02:58:00.476Z,2.97
2022-08-09T03:00:47.735Z,3.35
2022-08-09T03:03:37.271Z,3.22
2022-08-09T03:06:14.806Z,2.92
2022-08-09T03:08:46.138Z,3.30
2022-08-09T03:12:06.671Z,3.40
2022-08-09T03:14:07.751Z,3.45
2022-08-09T03:16:41.732Z,2.75
2022-08-09T03:19:14.528Z,2.20
2022-08-09T03:21:57.830Z,2.95
2022-08-09T03:24:31.479Z,2.07
2022-08-09T03:27:13.483Z,2.58
2022-08-09T03:29:57.680Z,2.22
2022-08-09T03:32:30.947Z,1.70
2022-08-09T03:34:59.284Z,2.00
2022-08-09T03:37:55.774Z,1.57
2022-08-09T03:40:13.466Z,1.88
2022-08-09T03:42:44.432Z,1.70
2022-08-09T03:45:11.839Z,2.40
2022-08-09T03:47:41.831Z,1.77
2022-08-09T03:50:12.112Z,1.70
2022-08-09T03:52:43.714Z,2.08
2022-08-09T03:55:14.403Z,2.28
2022-08-09T03:57:53.554Z,2.60
2022-08-09T04:00:29.116Z,2.00
2022-08-09T04:02:57.446Z,3.27
2022-08-09T04:05:27.619Z,2.83
2022-08-09T04:07:57.275Z,3.20
2022-08-09T04:10:29.519Z,3.97
2022-08-09T04:13:00.705Z,3.63
2022-08-09T04:15:42.637Z,3.53
2022-08-09T04:18:18.083Z,3.65
2022-08-09T04:20:50.610Z,3.35
2022-08-09T04:23:18.035Z,4.20
2022-08-09T04:25:52.153Z,3.53
2022-08-09T04:28:33.367Z,3.40
2022-08-09T04:31:05.738Z,3.30
2022-08-09T04:33:52.977Z,2.60
2022-08-09T04:36:25.934Z,2.80
2022-08-09T04:39:00.534Z,3.30
2022-08-09T04:41:32.125Z,3.10
2022-08-09T04:44:05.829Z,3.20
2022-08-09T04:46:56.911Z,2.78
2022-08-09T04:49:30.236Z,3.90
2022-08-09T04:52:07.383Z,3.50
2022-08-09T04:54:36.060Z,4.00
2022-08-09T04:57:03.762Z,3.42
2022-08-09T04:59:30.651Z,3.90
2022-08-09T05:01:57.223Z,4.22
2022-08-09T05:04:23.857Z,3.92
2022-08-09T05:06:57.801Z,4.13
2022-08-09T05:09:24.578Z,3.67
2022-08-09T05:11:51.484Z,4.25
2022-08-09T05:14:18.538Z,3.90
2022-08-09T05:16:58.967Z,3.85
2022-08-09T05:19:31.891Z,3.50
2022-08-09T05:23:50.605Z,3.75
2022-08-09T05:25:00.854Z,3.50
2022-08-09T05:27:27.835Z,3.13
2022-08-09T05:29:56.710Z,3.90
2022-08-09T05:32:23.583Z,3.77
2022-08-09T05:34:50.273Z,3.90
2022-08-09T05:37:18.179Z,3.65
2022-08-09T05:39:44.856Z,3.67
2022-08-09T05:42:20.555Z,3.85
2022-08-09T05:44:53.651Z,3.70
2022-08-09T05:47:22.883Z,3.83
2022-08-09T05:50:30.732Z,4.60
2022-08-09T05:52:42.008Z,3.63
2022-08-09T05:55:21.286Z,3.70
2022-08-09T05:57:51.145Z,4.00
2022-08-09T06:00:23.251Z,3.50
2022-08-09T06:02:54.346Z,3.67
2022-08-09T06:05:30.938Z,4.60
2022-08-09T06:08:11.122Z,3.47
2022-08-09T06:10:38.128Z,3.90
2022-08-09T06:13:12.170Z,4.28
2022-08-09T06:15:44.612Z,4.30
2022-08-09T06:18:13.618Z,4.30
2022-08-09T06:20:42.608Z,3.78
2022-08-09T06:23:11.994Z,3.70
2022-08-09T06:25:38.762Z,3.67
2022-08-09T06:28:07.589Z,4.22
2022-08-09T06:30:34.449Z,3.47
2022-08-09T06:33:13.263Z,3.97
2022-08-09T06:35:57.361Z,4.07
2022-08-09T06:38:36.336Z,3.92
2022-08-09T06:41:13.503Z,3.47
2022-08-09T06:43:46.446Z,3.88
2022-08-09T06:46:39.134Z,3.30
2022-08-09T06:49:00.390Z,3.80
2022-08-09T06:51:27.081Z,3.80
2022-08-09T06:53:55.471Z,3.38
2022-08-09T06:56:30.698Z,3.15
2022-08-09T07:00:56.455Z,4.07
2022-08-09T07:01:54.073Z,2.83
2022-08-09T07:04:25.027Z,3.03
2022-08-09T07:07:00.198Z,3.35
2022-08-09T07:09:54.233Z,3.03
2022-08-09T07:12:17.951Z,2.72
2022-08-09T07:14:51.278Z,2.57
2022-08-09T07:17:21.595Z,2.72
2022-08-09T07:19:50.922Z,3.15
2022-08-09T07:22:34.795Z,3.17
2022-08-09T07:25:05.346Z,2.38
2022-08-09T07:27:43.227Z,2.77
2022-08-09T07:30:21.787Z,2.25
2022-08-09T07:32:51.528Z,2.70
2022-08-09T07:35:19.145Z,2.42
2022-08-09T07:37:46.236Z,2.05
2022-08-09T07:40:18.500Z,1.80
2022-08-09T07:42:56.952Z,2.17
2022-08-09T07:45:40.393Z,2.00
2022-08-09T07:48:28.498Z,2.00
2022-08-09T07:51:03.025Z,2.42
2022-08-09T07:54:04.916Z,1.57
2022-08-09T07:56:27.010Z,1.83
2022-08-09T07:58:55.393Z,1.48
2022-08-09T08:01:28.471Z,1.20
2022-08-09T08:04:00.451Z,2.58
2022-08-09T08:06:32.073Z,1.00
2022-08-09T08:09:04.499Z,1.00
2022-08-09T08:12:10.416Z,2.35
2022-08-09T08:14:18.397Z,1.10
2022-08-09T08:17:00.620Z,1.00
2022-08-09T08:19:34.347Z,0.93
2022-08-09T08:22:01.695Z,0.80
2022-08-09T08:24:34.144Z,0.82
2022-08-09T08:27:16.501Z,0.70
2022-08-09T08:29:48.407Z,0.73
2022-08-09T08:32:18.963Z,0.50
2022-08-09T08:34:51.945Z,0.50
2022-08-09T08:37:21.792Z,0.60
2022-08-09T08:39:51.664Z,0.55
2022-08-09T08:42:18.356Z,0.40
2022-08-09T08:44:57.648Z,0.70
2022-08-09T08:47:29.381Z,0.47
2022-08-09T08:49:58.332Z,0.43
2022-08-09T08:52:58.267Z,0.40
2022-08-09T08:55:19.025Z,0.50
2022-08-09T08:57:57.388Z,0.50
2022-08-09T09:00:30.194Z,0.40
2022-08-09T09:03:08.888Z,0.40
2022-08-09T09:05:58.222Z,0.40
2022-08-09T09:08:30.847Z,1.08
2022-08-09T09:11:02.679Z,0.40
2022-08-09T09:13:41.745Z,0.40
2022-08-09T09:16:18.413Z,0.40
2022-08-09T09:19:15.667Z,0.40
2022-08-09T09:22:15.739Z,0.73
2022-08-09T09:24:59.103Z,0.33
2022-08-09T09:28:05.507Z,0.70
2022-08-09T09:30:47.388Z,0.40
2022-08-09T09:33:16.277Z,0.30
2022-08-09T09:36:02.410Z,0.68
2022-08-09T09:38:42.764Z,0.40
2022-08-09T09:41:10.691Z,0.40
2022-08-09T09:44:10.162Z,0.40
2022-08-09T09:46:41.753Z,0.50
2022-08-09T09:49:11.672Z,0.60
2022-08-09T09:51:40.569Z,0.57
2022-08-09T09:54:21.102Z,0.50
2022-08-09T09:58:00.280Z,0.60
2022-08-09T09:59:36.073Z,0.65
2022-08-09T10:02:02.598Z,0.35
2022-08-09T10:04:30.875Z,0.40
2022-08-09T10:06:58.406Z,0.40
2022-08-09T10:09:48.458Z,0.40
2022-08-09T10:12:34.678Z,0.30
2022-08-09T10:15:17.620Z,0.50
2022-08-09T10:17:56.362Z,0.30
2022-08-09T10:20:33.095Z,0.38
2022-08-09T10:23:17.187Z,0.40
2022-08-09T10:26:06.123Z,0.50
2022-08-09T10:28:34.226Z,0.50
2022-08-09T10:34:10.159Z,0.45
2022-08-09T10:36:36.400Z,0.50
2022-08-09T10:39:03.645Z,0.57
2022-08-09T10:41:40.459Z,0.38
2022-08-09T10:44:09.789Z,0.30
2022-08-09T10:46:55.672Z,0.50
2022-08-09T10:49:51.720Z,0.50
2022-08-09T10:52:46.371Z,0.60
2022-08-09T10:55:24.236Z,0.30
2022-08-09T10:57:55.448Z,0.43
2022-08-09T11:00:30.989Z,0.30
2022-08-09T11:03:10.914Z,0.47
2022-08-09T11:06:15.973Z,0.68
2022-08-09T11:08:47.992Z,0.30
2022-08-09T11:11:20.097Z,0.40
2022-08-09T11:13:53.677Z,0.45
2022-08-09T11:16:37.018Z,0.40
2022-08-09T11:19:09.788Z,0.40
2022-08-09T11:22:04.905Z,0.40
2022-08-09T11:24:57.934Z,0.40
2022-08-09T11:28:05.274Z,0.40
2022-08-09T11:30:36.205Z,0.40
2022-08-09T11:33:16.637Z,0.40
2022-08-09T11:35:49.810Z,0.40
2022-08-09T11:38:32.196Z,0.30
2022-08-09T11:41:05.377Z,0.50
2022-08-09T11:43:39.605Z,0.40
2022-08-09T11:46:06.652Z,0.30
2022-08-09T11:48:50.805Z,0.35
2022-08-09T11:52:49.292Z,0.60
2022-08-09T11:54:27.754Z,0.30
2022-08-09T11:57:56.399Z,0.35
2022-08-09T12:00:24.676Z,0.30
2022-08-09T12:02:54.608Z,0.40
2022-08-09T12:05:22.837Z,0.47
2022-08-09T12:07:50.065Z,0.30
2022-08-09T12:10:38.416Z,0.57
2022-08-09T12:14:07.571Z,0.50
2022-08-09T12:16:02.426Z,0.60
2022-08-09T12:18:33.508Z,0.30
2022-08-09T12:21:02.603Z,0.43
2022-08-09T12:23:58.005Z,0.20
2022-08-09T12:26:19.583Z,0.43
2022-08-09T12:29:10.809Z,0.40
2022-08-09T12:32:02.653Z,0.50
2022-08-09T12:34:41.136Z,0.60
2022-08-09T12:37:21.549Z,0.38
2022-08-09T12:40:08.558Z,0.40
2022-08-09T12:42:36.238Z,0.40
2022-08-09T12:45:32.373Z,0.40
2022-08-09T12:47:52.495Z,0.52
2022-08-09T12:50:19.862Z,0.35
2022-08-09T12:53:17.441Z,1.00
2022-08-09T12:56:12.574Z,0.47
2022-08-09T12:58:24.418Z,0.43
2022-08-09T13:00:55.161Z,0.30
2022-08-09T13:03:53.043Z,0.43
2022-08-09T13:06:34.539Z,0.40
2022-08-09T13:09:22.826Z,0.30
2022-08-09T13:11:52.699Z,0.60
2022-08-09T13:14:43.786Z,0.60
2022-08-09T13:17:16.363Z,0.50
2022-08-09T13:20:14.341Z,0.45
2022-08-09T13:23:05.740Z,0.40
2022-08-09T13:25:52.944Z,0.50
2022-08-09T13:28:34.486Z,0.68
2022-08-09T13:32:14.963Z,0.60
2022-08-09T13:33:54.387Z,0.45
2022-08-09T13:36:40.188Z,0.50
2022-08-09T13:41:17.172Z,0.40
2022-08-09T13:42:12.029Z,0.55
2022-08-09T13:44:42.679Z,0.40
2022-08-09T13:47:27.673Z,1.20
2022-08-09T13:50:18.230Z,1.23
2022-08-09T13:52:55.958Z,0.70
2022-08-09T13:55:22.780Z,0.70
2022-08-09T13:57:56.332Z,0.40
2022-08-09T14:00:28.345Z,0.65
2022-08-09T14:03:16.958Z,0.52
2022-08-09T14:05:59.170Z,0.43
2022-08-09T14:08:29.213Z,0.40
2022-08-09T14:10:57.077Z,0.55
2022-08-09T14:14:16.418Z,0.50
2022-08-09T14:16:14.004Z,0.70
2022-08-09T14:18:43.189Z,0.43
2022-08-09T14:21:17.249Z,0.30
2022-08-09T14:23:53.738Z,0.38
2022-08-09T14:26:21.593Z,0.50
2022-08-09T14:28:47.979Z,0.63
2022-08-09T14:31:14.528Z,0.60
2022-08-09T14:33:41.888Z,0.50
2022-08-09T14:36:20.341Z,0.50
2022-08-09T14:38:52.818Z,0.52
2022-08-09T14:41:34.825Z,0.47
2022-08-09T14:44:07.474Z,0.60
2022-08-09T14:46:54.919Z,0.40
2022-08-09T14:49:25.472Z,0.38
2022-08-09T14:51:53.287Z,0.50
2022-08-09T14:54:28.043Z,1.20
2022-08-09T14:56:57.886Z,0.57
2022-08-09T14:59:24.760Z,0.40
2022-08-09T15:01:53.499Z,0.50
2022-08-09T15:04:20.040Z,0.40
2022-08-09T15:06:50.468Z,0.50
2022-08-09T15:10:03.516Z,0.50
2022-08-09T15:12:08.053Z,0.40
2022-08-09T15:14:38.562Z,0.68
2022-08-09T15:17:09.095Z,0.40
2022-08-09T15:19:36.490Z,0.30
2022-08-09T15:22:03.384Z,0.40
2022-08-09T15:24:29.919Z,0.38
2022-08-09T15:26:56.443Z,0.40
2022-08-09T15:30:56.975Z,0.50
2022-08-09T15:32:29.134Z,0.98
2022-08-09T15:34:59.705Z,0.40
2022-08-09T15:37:56.171Z,0.40
2022-08-09T15:40:25.374Z,0.50
2022-08-09T15:42:59.057Z,0.60
2022-08-09T15:45:29.425Z,0.63
2022-08-09T15:48:05.619Z,0.50
2022-08-09T15:50:39.185Z,0.60
2022-08-09T15:53:18.838Z,0.40
2022-08-09T15:56:04.654Z,0.60
2022-08-09T15:58:39.383Z,0.70
2022-08-09T16:01:06.140Z,0.90
2022-08-09T16:03:38.418Z,0.65
2022-08-09T16:06:29.274Z,0.80
2022-08-09T16:09:01.195Z,0.60
2022-08-09T16:11:33.099Z,0.40
2022-08-09T16:14:06.538Z,0.43
2022-08-09T16:16:37.075Z,0.30
2022-08-09T16:19:08.775Z,0.65
2022-08-09T16:21:40.182Z,0.28
2022-08-09T16:24:20.119Z,0.43
2022-08-09T16:26:59.299Z,0.40
2022-08-09T16:29:37.299Z,0.50
2022-08-09T16:32:18.159Z,0.68
2022-08-09T16:34:56.417Z,0.47
2022-08-09T16:37:55.830Z,0.40
2022-08-09T16:40:13.369Z,0.47
2022-08-09T16:42:45.555Z,0.68
2022-08-09T16:45:17.286Z,0.50
2022-08-09T16:48:41.087Z,0.40
2022-08-09T16:50:33.945Z,0.57
2022-08-09T16:53:02.115Z,0.70
2022-08-09T16:55:44.331Z,0.43
2022-08-09T16:58:17.026Z,0.50
2022-08-09T17:00:43.719Z,0.38
2022-08-09T17:03:21.292Z,0.38
2022-08-09T17:06:08.591Z,0.50
2022-08-09T17:09:02.967Z,0.30
2022-08-09T17:11:37.684Z,0.38
2022-08-09T17:14:26.057Z,0.40
2022-08-09T17:17:00.115Z,0.30
2022-08-09T17:19:47.607Z,0.43
2022-08-09T17:22:24.715Z,0.40
2022-08-09T17:24:56.092Z,0.30
2022-08-09T17:27:31.182Z,0.68
2022-08-09T17:29:57.657Z,0.30
2022-08-09T17:32:37.425Z,0.30
2022-08-09T17:35:12.119Z,0.40
2022-08-09T17:38:11.896Z,0.30
2022-08-09T17:40:28.147Z,0.50
2022-08-09T17:42:59.220Z,0.30
2022-08-09T17:45:45.511Z,0.73
2022-08-09T17:48:14.806Z,0.40
2022-08-09T17:50:42.107Z,0.30
2022-08-09T17:53:22.697Z,0.60
2022-08-09T17:55:54.120Z,0.47
2022-08-09T17:58:26.675Z,0.30
2022-08-09T18:00:56.379Z,0.50
2022-08-09T18:03:24.623Z,0.80
2022-08-09T18:05:52.998Z,0.38
2022-08-09T18:08:21.988Z,0.38
2022-08-09T18:11:02.080Z,0.50
2022-08-09T18:13:39.731Z,0.60
2022-08-09T18:16:30.160Z,0.40
2022-08-09T18:19:03.451Z,0.60
2022-08-09T18:21:31.743Z,0.50
2022-08-09T18:24:09.788Z,0.70
2022-08-09T18:26:46.789Z,0.30
2022-08-09T18:30:40.182Z,0.30
2022-08-09T18:32:05.303Z,0.40
2022-08-09T18:34:34.938Z,0.30
2022-08-09T18:37:03.044Z,0.30
2022-08-09T18:39:32.455Z,0.30
2022-08-09T18:42:01.703Z,0.40
2022-08-09T18:44:28.323Z,0.50
2022-08-09T18:47:06.237Z,0.50
2022-08-09T18:49:43.723Z,0.40
2022-08-09T18:52:15.747Z,0.38
2022-08-09T18:54:52.502Z,0.30
2022-08-09T18:57:19.812Z,0.40
2022-08-09T18:59:54.524Z,0.50
2022-08-09T19:02:30.765Z,0.40
2022-08-09T19:05:03.969Z,0.40
2022-08-09T19:07:43.232Z,0.30
2022-08-09T19:10:26.567Z,0.40
2022-08-09T19:12:59.241Z,0.30
2022-08-09T19:15:39.427Z,0.23
2022-08-09T19:18:06.225Z,0.30
2022-08-09T19:20:43.772Z,0.95
2022-08-09T19:23:16.491Z,0.40
2022-08-09T19:26:01.955Z,0.20
2022-08-09T19:28:29.984Z,0.30
2022-08-09T19:30:57.811Z,0.30
2022-08-09T19:33:24.303Z,0.30
2022-08-09T19:35:58.454Z,0.40
2022-08-09T19:38:26.380Z,0.40
2022-08-09T19:40:53.855Z,0.53
2022-08-09T19:44:00.831Z,0.40
2022-08-09T19:46:08.509Z,0.30
2022-08-09T19:49:00.421Z,0.40
2022-08-09T19:51:27.948Z,0.32
2022-08-09T19:53:58.005Z,0.83
2022-08-09T19:56:29.382Z,0.50
2022-08-09T19:59:40.548Z,0.38
2022-08-09T20:01:53.070Z,0.32
2022-08-09T20:04:36.397Z,0.50
2022-08-09T20:07:06.239Z,0.33
2022-08-09T20:09:44.360Z,0.40
2022-08-09T20:12:27.023Z,0.50
2022-08-09T20:15:02.082Z,0.70
2022-08-09T20:17:41.362Z,0.57
2022-08-09T20:20:15.035Z,0.50
2022-08-09T20:22:44.727Z,0.47
2022-08-09T20:25:13.072Z,0.40
2022-08-09T20:27:48.998Z,0.38
2022-08-09T20:30:17.903Z,0.45
2022-08-09T20:32:52.057Z,0.60
2022-08-09T20:35:19.625Z,0.50
2022-08-09T20:38:22.135Z,0.60
2022-08-09T20:40:32.595Z,0.40
2022-08-09T20:43:18.223Z,0.50
2022-08-09T20:45:56.672Z,0.50
2022-08-09T20:48:30.839Z,0.68
2022-08-09T20:50:58.458Z,0.40
2022-08-09T20:53:35.384Z,0.40
2022-08-09T20:56:07.199Z,0.40
2022-08-09T20:58:35.864Z,0.53
2022-08-09T21:01:33.698Z,0.50
2022-08-09T21:05:49.831Z,0.65
2022-08-09T21:06:41.425Z,0.40
2022-08-09T21:09:13.973Z,0.40
2022-08-09T21:14:30.772Z,0.45
2022-08-09T21:16:59.306Z,0.50
2022-08-09T21:20:19.619Z,0.32
2022-08-09T21:22:36.286Z,0.20
2022-08-09T21:25:17.807Z,0.40
2022-08-09T21:27:50.860Z,0.40
2022-08-09T21:30:18.945Z,0.30
2022-08-09T21:32:48.504Z,0.30
2022-08-09T21:35:14.952Z,0.30
2022-08-09T21:37:58.804Z,0.30
2022-08-09T21:40:30.142Z,0.35
2022-08-09T21:42:58.663Z,0.40
2022-08-09T21:45:25.898Z,0.30
2022-08-09T21:47:52.632Z,0.43
2022-08-09T21:50:35.793Z,0.40
2022-08-09T21:53:06.470Z,0.40
2022-08-09T21:55:46.531Z,0.30
2022-08-09T21:58:13.529Z,0.30
2022-08-09T22:00:41.066Z,0.30
2022-08-09T22:03:19.249Z,0.30
2022-08-09T22:05:51.884Z,0.40
2022-08-09T22:08:18.406Z,0.30
2022-08-09T22:11:00.365Z,1.00
2022-08-09T22:13:35.704Z,0.40
2022-08-09T22:16:08.313Z,0.60
2022-08-09T22:18:37.091Z,0.30
2022-08-09T22:21:10.046Z,0.30
2022-08-09T22:23:58.957Z,0.50
2022-08-09T22:26:35.449Z,0.40
2022-08-09T22:29:07.529Z,0.30
2022-08-09T22:31:36.039Z,0.40
2022-08-09T22:34:02.690Z,0.40
2022-08-09T22:36:29.112Z,0.40
2022-08-09T22:39:46.774Z,0.55
2022-08-09T22:41:58.842Z,0.30
2022-08-09T22:44:25.817Z,0.32
2022-08-09T22:48:16.014Z,0.30
2022-08-09T22:49:47.059Z,0.35
2022-08-09T22:52:13.720Z,0.40
2022-08-09T22:54:42.246Z,0.30
2022-08-09T22:57:11.876Z,0.40
2022-08-09T22:59:55.833Z,0.30
2022-08-09T23:02:25.079Z,0.30
2022-08-09T23:04:53.863Z,0.43
2022-08-09T23:08:22.493Z,0.40
2022-08-09T23:10:26.542Z,0.40
2022-08-09T23:12:52.944Z,0.43
2022-08-09T23:15:19.359Z,0.30
2022-08-09T23:17:45.725Z,0.30
2022-08-09T23:20:12.143Z,0.50
2022-08-09T23:22:38.594Z,0.30
2022-08-09T23:25:06.238Z,0.40
2022-08-09T23:27:33.415Z,0.40
2022-08-09T23:30:00.137Z,0.55
2022-08-09T23:32:26.689Z,0.40
2022-08-09T23:34:53.123Z,0.50
2022-08-09T23:37:21.509Z,0.60
2022-08-09T23:40:01.579Z,0.38
2022-08-09T23:42:28.305Z,0.60
2022-08-09T23:44:54.771Z,0.50
2022-08-09T23:47:21.256Z,0.45
2022-08-09T23:49:47.652Z,0.57
2022-08-09T23:52:14.147Z,0.40
2022-08-09T23:54:44.408Z,0.40
2022-08-09T23:57:12.056Z,0.60
2022-08-09T23:59:59.525Z,0.50
